sensor_id;sensor_type;location;lat;lon;timestamp;pressure;altitude;pressure_sealevel;temperature;humidity
11621;BME280;5866;49.094;11.900;2023-03-20T00:00:46;96314.56;;;11.81;100.00
11621;BME280;5866;49.094;11.900;2023-03-20T00:03:15;96311.72;;;11.82;100.00
11621;BME280;5866;49.094;11.900;2023-03-20T00:05:44;96315.88;;;11.85;100.00
11621;BME280;5866;49.094;11.900;2023-03-20T00:08:12;96318.53;;;11.85;100.00
11621;BME280;5866;49.094;11.900;2023-03-20T00:10:41;96323.00;;;11.84;100.00
11621;BME280;5866;49.094;11.900;2023-03-20T00:13:13;96320.34;;;11.84;100.00
11621;BME280;5866;49.094;11.900;2023-03-20T00:15:42;96313.88;;;11.71;100.00
11621;BME280;5866;49.094;11.900;2023-03-20T00:18:13;96320.53;;;11.75;100.00
11621;BME280;5866;49.094;11.900;2023-03-20T00:20:41;96309.41;;;11.71;100.00
11621;BME280;5866;49.094;11.900;2023-03-20T00:23:10;96324.16;;;11.66;100.00
11621;BME280;5866;49.094;11.900;2023-03-20T00:25:39;96323.50;;;11.48;100.00
11621;BME280;5866;49.094;11.900;2023-03-20T00:28:29;96322.97;;;11.44;100.00
11621;BME280;5866;49.094;11.900;2023-03-20T00:31:04;96318.97;;;11.24;100.00
11621;BME280;5866;49.094;11.900;2023-03-20T00:33:32;96317.63;;;11.12;100.00
11621;BME280;5866;49.094;11.900;2023-03-20T00:36:00;96327.19;;;10.89;100.00
11621;BME280;5866;49.094;11.900;2023-03-20T00:38:29;96331.19;;;10.93;100.00
11621;BME280;5866;49.094;11.900;2023-03-20T00:40:56;96319.56;;;10.86;100.00
11621;BME280;5866;49.094;11.900;2023-03-20T00:43:24;96319.38;;;10.87;100.00
11621;BME280;5866;49.094;11.900;2023-03-20T00:45:51;96322.53;;;10.83;100.00
11621;BME280;5866;49.094;11.900;2023-03-20T00:48:19;96322.19;;;10.78;100.00
11621;BME280;5866;49.094;11.900;2023-03-20T00:50:47;96325.13;;;10.67;100.00
11621;BME280;5866;49.094;11.900;2023-03-20T00:53:15;96331.56;;;10.64;100.00
11621;BME280;5866;49.094;11.900;2023-03-20T00:55:44;96333.41;;;10.64;100.00
11621;BME280;5866;49.094;11.900;2023-03-20T00:58:11;96333.34;;;10.56;100.00
11621;BME280;5866;49.094;11.900;2023-03-20T01:00:40;96328.81;;;10.40;100.00
11621;BME280;5866;49.094;11.900;2023-03-20T01:03:14;96338.41;;;10.41;100.00
11621;BME280;5866;49.094;11.900;2023-03-20T01:05:44;96327.66;;;10.34;100.00
11621;BME280;5866;49.094;11.900;2023-03-20T01:08:13;96335.84;;;10.23;100.00
11621;BME280;5866;49.094;11.900;2023-03-20T01:10:42;96334.81;;;10.16;100.00
11621;BME280;5866;49.094;11.900;2023-03-20T01:13:18;96331.50;;;10.14;100.00
11621;BME280;5866;49.094;11.900;2023-03-20T01:15:47;96328.75;;;10.06;100.00
11621;BME280;5866;49.094;11.900;2023-03-20T01:18:17;96325.06;;;9.99;100.00
11621;BME280;5866;49.094;11.900;2023-03-20T01:20:45;96320.56;;;9.92;100.00
11621;BME280;5866;49.094;11.900;2023-03-20T01:23:13;96317.34;;;9.80;100.00
11621;BME280;5866;49.094;11.900;2023-03-20T01:25:41;96319.88;;;9.90;100.00
11621;BME280;5866;49.094;11.900;2023-03-20T01:28:15;96310.16;;;9.73;100.00
11621;BME280;5866;49.094;11.900;2023-03-20T01:30:44;96319.06;;;9.46;100.00
11621;BME280;5866;49.094;11.900;2023-03-20T01:33:14;96314.88;;;9.26;100.00
11621;BME280;5866;49.094;11.900;2023-03-20T01:35:42;96313.16;;;9.34;100.00
11621;BME280;5866;49.094;11.900;2023-03-20T01:38:12;96317.53;;;9.43;100.00
11621;BME280;5866;49.094;11.900;2023-03-20T01:40:47;96311.47;;;9.51;100.00
11621;BME280;5866;49.094;11.900;2023-03-20T01:43:20;96311.56;;;9.41;100.00
11621;BME280;5866;49.094;11.900;2023-03-20T01:46:00;96313.63;;;9.30;100.00
11621;BME280;5866;49.094;11.900;2023-03-20T01:48:35;96308.41;;;9.20;100.00
11621;BME280;5866;49.094;11.900;2023-03-20T01:51:23;96308.16;;;9.14;100.00
11621;BME280;5866;49.094;11.900;2023-03-20T01:53:55;96319.34;;;9.08;100.00
11621;BME280;5866;49.094;11.900;2023-03-20T01:56:27;96306.09;;;8.72;100.00
11621;BME280;5866;49.094;11.900;2023-03-20T01:59:01;96314.50;;;8.86;100.00
11621;BME280;5866;49.094;11.900;2023-03-20T02:01:30;96317.75;;;8.97;100.00
11621;BME280;5866;49.094;11.900;2023-03-20T02:03:58;96319.00;;;8.75;100.00
11621;BME280;5866;49.094;11.900;2023-03-20T02:06:26;96318.56;;;8.62;100.00
11621;BME280;5866;49.094;11.900;2023-03-20T02:08:54;96326.56;;;8.70;100.00
11621;BME280;5866;49.094;11.900;2023-03-20T02:11:23;96328.81;;;8.65;100.00
11621;BME280;5866;49.094;11.900;2023-03-20T02:13:52;96319.84;;;8.76;100.00
11621;BME280;5866;49.094;11.900;2023-03-20T02:16:22;96332.59;;;8.90;100.00
11621;BME280;5866;49.094;11.900;2023-03-20T02:18:50;96330.84;;;8.99;100.00
11621;BME280;5866;49.094;11.900;2023-03-20T02:25:00;96328.41;;;8.88;100.00
11621;BME280;5866;49.094;11.900;2023-03-20T02:27:49;96328.47;;;8.78;100.00
11621;BME280;5866;49.094;11.900;2023-03-20T02:30:37;96330.59;;;8.74;100.00
11621;BME280;5866;49.094;11.900;2023-03-20T02:33:39;96339.78;;;8.70;100.00
11621;BME280;5866;49.094;11.900;2023-03-20T02:36:59;96330.41;;;8.31;100.00
11621;BME280;5866;49.094;11.900;2023-03-20T02:39:45;96320.50;;;8.60;100.00
11621;BME280;5866;49.094;11.900;2023-03-20T02:42:22;96329.16;;;8.53;100.00
11621;BME280;5866;49.094;11.900;2023-03-20T02:45:03;96331.09;;;8.60;100.00
11621;BME280;5866;49.094;11.900;2023-03-20T02:47:39;96329.72;;;8.56;100.00
11621;BME280;5866;49.094;11.900;2023-03-20T02:50:12;96330.41;;;8.31;100.00
11621;BME280;5866;49.094;11.900;2023-03-20T02:52:46;96332.53;;;8.45;100.00
11621;BME280;5866;49.094;11.900;2023-03-20T02:55:19;96331.13;;;8.51;100.00
11621;BME280;5866;49.094;11.900;2023-03-20T02:57:56;96339.47;;;8.73;100.00
11621;BME280;5866;49.094;11.900;2023-03-20T03:00:28;96332.63;;;8.80;100.00
11621;BME280;5866;49.094;11.900;2023-03-20T03:03:05;96335.66;;;8.86;100.00
11621;BME280;5866;49.094;11.900;2023-03-20T03:05:36;96333.75;;;8.78;100.00
11621;BME280;5866;49.094;11.900;2023-03-20T03:08:05;96331.69;;;8.72;100.00
11621;BME280;5866;49.094;11.900;2023-03-20T03:10:40;96334.44;;;8.53;100.00
11621;BME280;5866;49.094;11.900;2023-03-20T03:13:13;96336.75;;;8.38;100.00
11621;BME280;5866;49.094;11.900;2023-03-20T03:15:44;96335.47;;;7.96;100.00
11621;BME280;5866;49.094;11.900;2023-03-20T03:18:16;96341.66;;;8.33;100.00
11621;BME280;5866;49.094;11.900;2023-03-20T03:20:47;96351.22;;;8.34;100.00
11621;BME280;5866;49.094;11.900;2023-03-20T03:23:24;96346.34;;;8.66;100.00
11621;BME280;5866;49.094;11.900;2023-03-20T03:25:54;96353.69;;;8.45;100.00
11621;BME280;5866;49.094;11.900;2023-03-20T03:28:28;96353.50;;;8.84;100.00
11621;BME280;5866;49.094;11.900;2023-03-20T03:31:04;96344.84;;;9.09;100.00
11621;BME280;5866;49.094;11.900;2023-03-20T03:33:37;96351.59;;;9.21;100.00
11621;BME280;5866;49.094;11.900;2023-03-20T03:36:11;96352.25;;;9.23;100.00
11621;BME280;5866;49.094;11.900;2023-03-20T03:38:44;96353.69;;;9.35;100.00
11621;BME280;5866;49.094;11.900;2023-03-20T03:41:26;96358.81;;;8.00;100.00
11621;BME280;5866;49.094;11.900;2023-03-20T03:44:01;96376.97;;;7.38;100.00
11621;BME280;5866;49.094;11.900;2023-03-20T03:46:38;96381.53;;;7.46;100.00
11621;BME280;5866;49.094;11.900;2023-03-20T03:49:13;96383.91;;;7.49;100.00
11621;BME280;5866;49.094;11.900;2023-03-20T03:51:44;96382.53;;;8.20;100.00
11621;BME280;5866;49.094;11.900;2023-03-20T03:54:15;96376.72;;;8.62;100.00
11621;BME280;5866;49.094;11.900;2023-03-20T03:56:47;96366.50;;;8.95;100.00
11621;BME280;5866;49.094;11.900;2023-03-20T03:59:22;96362.06;;;9.30;100.00
11621;BME280;5866;49.094;11.900;2023-03-20T04:01:51;96367.59;;;9.72;100.00
11621;BME280;5866;49.094;11.900;2023-03-20T04:04:21;96364.94;;;9.72;100.00
11621;BME280;5866;49.094;11.900;2023-03-20T04:06:50;96358.22;;;10.03;100.00
11621;BME280;5866;49.094;11.900;2023-03-20T04:09:17;96368.53;;;9.28;100.00
11621;BME280;5866;49.094;11.900;2023-03-20T04:11:49;96364.13;;;9.19;100.00
11621;BME280;5866;49.094;11.900;2023-03-20T04:14:17;96371.47;;;9.25;100.00
11621;BME280;5866;49.094;11.900;2023-03-20T04:16:45;96365.63;;;9.39;100.00
11621;BME280;5866;49.094;11.900;2023-03-20T04:19:12;96380.97;;;9.00;100.00
11621;BME280;5866;49.094;11.900;2023-03-20T04:21:40;96374.81;;;9.44;100.00
11621;BME280;5866;49.094;11.900;2023-03-20T04:24:07;96378.94;;;9.12;100.00
11621;BME280;5866;49.094;11.900;2023-03-20T04:26:35;96379.91;;;9.81;100.00
11621;BME280;5866;49.094;11.900;2023-03-20T04:29:04;96372.53;;;10.62;100.00
11621;BME280;5866;49.094;11.900;2023-03-20T04:31:32;96376.09;;;10.01;100.00
11621;BME280;5866;49.094;11.900;2023-03-20T04:33:59;96384.94;;;9.31;100.00
11621;BME280;5866;49.094;11.900;2023-03-20T04:36:27;96396.97;;;8.71;100.00
11621;BME280;5866;49.094;11.900;2023-03-20T04:38:54;96401.72;;;8.68;100.00
11621;BME280;5866;49.094;11.900;2023-03-20T04:41:23;96387.19;;;8.82;100.00
11621;BME280;5866;49.094;11.900;2023-03-20T04:43:50;96393.16;;;9.28;100.00
11621;BME280;5866;49.094;11.900;2023-03-20T04:46:19;96382.00;;;10.13;100.00
11621;BME280;5866;49.094;11.900;2023-03-20T04:48:46;96367.28;;;10.78;100.00
11621;BME280;5866;49.094;11.900;2023-03-20T04:51:14;96375.41;;;9.56;100.00
11621;BME280;5866;49.094;11.900;2023-03-20T04:53:41;96378.94;;;10.51;100.00
11621;BME280;5866;49.094;11.900;2023-03-20T04:56:09;96374.31;;;10.27;100.00
11621;BME280;5866;49.094;11.900;2023-03-20T04:58:36;96375.19;;;10.36;100.00
11621;BME280;5866;49.094;11.900;2023-03-20T05:01:04;96383.72;;;10.81;100.00
11621;BME280;5866;49.094;11.900;2023-03-20T05:03:33;96377.28;;;10.92;100.00
11621;BME280;5866;49.094;11.900;2023-03-20T05:06:01;96382.81;;;11.06;100.00
11621;BME280;5866;49.094;11.900;2023-03-20T05:08:28;96380.69;;;11.18;100.00
11621;BME280;5866;49.094;11.900;2023-03-20T05:10:56;96386.97;;;11.17;100.00
11621;BME280;5866;49.094;11.900;2023-03-20T05:13:23;96393.19;;;10.84;100.00
11621;BME280;5866;49.094;11.900;2023-03-20T05:15:51;96389.16;;;10.72;100.00
11621;BME280;5866;49.094;11.900;2023-03-20T05:18:18;96377.44;;;10.90;100.00
11621;BME280;5866;49.094;11.900;2023-03-20T05:20:49;96379.66;;;11.11;100.00
11621;BME280;5866;49.094;11.900;2023-03-20T05:23:17;96384.34;;;11.17;100.00
11621;BME280;5866;49.094;11.900;2023-03-20T05:25:44;96396.47;;;11.28;100.00
11621;BME280;5866;49.094;11.900;2023-03-20T05:28:12;96384.94;;;10.95;100.00
11621;BME280;5866;49.094;11.900;2023-03-20T05:30:39;96390.44;;;11.01;100.00
11621;BME280;5866;49.094;11.900;2023-03-20T05:33:07;96392.78;;;11.12;100.00
11621;BME280;5866;49.094;11.900;2023-03-20T05:35:34;96391.91;;;11.04;100.00
11621;BME280;5866;49.094;11.900;2023-03-20T05:38:03;96398.41;;;11.01;100.00
11621;BME280;5866;49.094;11.900;2023-03-20T05:40:31;96403.72;;;11.09;100.00
11621;BME280;5866;49.094;11.900;2023-03-20T05:42:58;96403.53;;;11.03;100.00
11621;BME280;5866;49.094;11.900;2023-03-20T05:45:26;96414.38;;;10.50;100.00
11621;BME280;5866;49.094;11.900;2023-03-20T05:47:54;96417.13;;;10.66;100.00
11621;BME280;5866;49.094;11.900;2023-03-20T05:50:21;96422.00;;;10.79;100.00
11621;BME280;5866;49.094;11.900;2023-03-20T05:52:49;96420.75;;;10.57;100.00
11621;BME280;5866;49.094;11.900;2023-03-20T05:55:18;96421.97;;;10.71;100.00
11621;BME280;5866;49.094;11.900;2023-03-20T05:57:45;96416.28;;;10.58;100.00
11621;BME280;5866;49.094;11.900;2023-03-20T06:00:13;96418.72;;;10.85;100.00
11621;BME280;5866;49.094;11.900;2023-03-20T06:02:41;96422.50;;;11.16;100.00
11621;BME280;5866;49.094;11.900;2023-03-20T06:05:12;96434.84;;;10.32;100.00
11621;BME280;5866;49.094;11.900;2023-03-20T06:07:40;96430.38;;;10.32;100.00
11621;BME280;5866;49.094;11.900;2023-03-20T06:10:08;96434.34;;;10.96;100.00
11621;BME280;5866;49.094;11.900;2023-03-20T06:12:37;96436.16;;;10.10;100.00
11621;BME280;5866;49.094;11.900;2023-03-20T06:15:06;96440.84;;;9.46;100.00
11621;BME280;5866;49.094;11.900;2023-03-20T06:17:33;96450.97;;;9.06;100.00
11621;BME280;5866;49.094;11.900;2023-03-20T06:20:01;96455.66;;;8.85;100.00
11621;BME280;5866;49.094;11.900;2023-03-20T06:22:28;96450.84;;;8.70;100.00
11621;BME280;5866;49.094;11.900;2023-03-20T06:24:56;96453.94;;;9.03;100.00
11621;BME280;5866;49.094;11.900;2023-03-20T06:27:23;96449.06;;;9.43;100.00
11621;BME280;5866;49.094;11.900;2023-03-20T06:29:53;96446.38;;;9.52;100.00
11621;BME280;5866;49.094;11.900;2023-03-20T06:32:21;96459.22;;;9.47;100.00
11621;BME280;5866;49.094;11.900;2023-03-20T06:34:49;96456.13;;;9.87;100.00
11621;BME280;5866;49.094;11.900;2023-03-20T06:37:17;96450.97;;;10.03;100.00
11621;BME280;5866;49.094;11.900;2023-03-20T06:39:45;96450.34;;;10.70;100.00
11621;BME280;5866;49.094;11.900;2023-03-20T06:42:12;96451.56;;;10.84;100.00
11621;BME280;5866;49.094;11.900;2023-03-20T06:44:41;96451.59;;;10.92;100.00
11621;BME280;5866;49.094;11.900;2023-03-20T06:47:10;96447.28;;;10.91;100.00
11621;BME280;5866;49.094;11.900;2023-03-20T06:49:37;96440.63;;;11.29;100.00
11621;BME280;5866;49.094;11.900;2023-03-20T06:52:05;96441.84;;;11.58;100.00
11621;BME280;5866;49.094;11.900;2023-03-20T06:54:34;96452.00;;;11.05;100.00
11621;BME280;5866;49.094;11.900;2023-03-20T06:57:01;96448.72;;;10.85;100.00
11621;BME280;5866;49.094;11.900;2023-03-20T06:59:29;96449.41;;;10.10;100.00
11621;BME280;5866;49.094;11.900;2023-03-20T07:01:56;96456.22;;;9.78;100.00
11621;BME280;5866;49.094;11.900;2023-03-20T07:04:25;96460.25;;;9.37;100.00
11621;BME280;5866;49.094;11.900;2023-03-20T07:06:53;96474.06;;;9.40;100.00
11621;BME280;5866;49.094;11.900;2023-03-20T07:09:21;96469.53;;;9.50;100.00
11621;BME280;5866;49.094;11.900;2023-03-20T07:11:48;96485.53;;;9.31;100.00
11621;BME280;5866;49.094;11.900;2023-03-20T07:14:16;96487.00;;;9.16;100.00
11621;BME280;5866;49.094;11.900;2023-03-20T07:16:43;96487.22;;;9.23;100.00
11621;BME280;5866;49.094;11.900;2023-03-20T07:19:11;96486.66;;;9.29;100.00
11621;BME280;5866;49.094;11.900;2023-03-20T07:21:40;96493.47;;;9.49;100.00
11621;BME280;5866;49.094;11.900;2023-03-20T07:24:08;96498.59;;;9.33;100.00
11621;BME280;5866;49.094;11.900;2023-03-20T07:26:36;96497.69;;;9.87;100.00
11621;BME280;5866;49.094;11.900;2023-03-20T07:29:03;96491.44;;;10.05;100.00
11621;BME280;5866;49.094;11.900;2023-03-20T07:31:31;96493.88;;;10.60;100.00
11621;BME280;5866;49.094;11.900;2023-03-20T07:33:58;96488.44;;;10.95;100.00
11621;BME280;5866;49.094;11.900;2023-03-20T07:36:26;96487.38;;;11.63;100.00
11621;BME280;5866;49.094;11.900;2023-03-20T07:38:55;96483.81;;;11.96;100.00
11621;BME280;5866;49.094;11.900;2023-03-20T07:41:22;96483.69;;;11.98;100.00
11621;BME280;5866;49.094;11.900;2023-03-20T07:43:50;96476.38;;;12.16;100.00
11621;BME280;5866;49.094;11.900;2023-03-20T07:46:17;96482.34;;;12.34;100.00
11621;BME280;5866;49.094;11.900;2023-03-20T07:48:45;96489.50;;;12.02;100.00
11621;BME280;5866;49.094;11.900;2023-03-20T07:51:12;96485.44;;;11.73;100.00
11621;BME280;5866;49.094;11.900;2023-03-20T07:53:40;96498.63;;;11.49;100.00
11621;BME280;5866;49.094;11.900;2023-03-20T07:56:09;96497.88;;;11.31;100.00
11621;BME280;5866;49.094;11.900;2023-03-20T07:58:36;96485.66;;;11.46;100.00
11621;BME280;5866;49.094;11.900;2023-03-20T08:01:04;96477.81;;;11.29;100.00
11621;BME280;5866;49.094;11.900;2023-03-20T08:03:32;96485.78;;;10.44;100.00
11621;BME280;5866;49.094;11.900;2023-03-20T08:05:59;96483.63;;;9.86;100.00
11621;BME280;5866;49.094;11.900;2023-03-20T08:08:29;96484.22;;;9.98;100.00
11621;BME280;5866;49.094;11.900;2023-03-20T08:10:57;96488.38;;;10.00;100.00
11621;BME280;5866;49.094;11.900;2023-03-20T08:13:26;96484.94;;;10.17;100.00
11621;BME280;5866;49.094;11.900;2023-03-20T08:15:53;96488.91;;;10.65;100.00
11621;BME280;5866;49.094;11.900;2023-03-20T08:18:21;96477.22;;;11.09;100.00
11621;BME280;5866;49.094;11.900;2023-03-20T08:20:48;96490.38;;;10.85;100.00
11621;BME280;5866;49.094;11.900;2023-03-20T08:23:16;96488.25;;;11.22;100.00
11621;BME280;5866;49.094;11.900;2023-03-20T08:25:47;96482.09;;;10.36;100.00
11621;BME280;5866;49.094;11.900;2023-03-20T08:28:14;96484.75;;;10.62;100.00
11621;BME280;5866;49.094;11.900;2023-03-20T08:30:43;96496.09;;;10.47;100.00
11621;BME280;5866;49.094;11.900;2023-03-20T08:33:12;96495.75;;;10.50;100.00
11621;BME280;5866;49.094;11.900;2023-03-20T08:35:39;96490.38;;;10.85;100.00
11621;BME280;5866;49.094;11.900;2023-03-20T08:38:10;96495.25;;;10.97;100.00
11621;BME280;5866;49.094;11.900;2023-03-20T08:40:39;96489.47;;;11.93;100.00
11621;BME280;5866;49.094;11.900;2023-03-20T08:43:06;96483.84;;;12.45;100.00
11621;BME280;5866;49.094;11.900;2023-03-20T08:45:34;96479.91;;;13.20;100.00
11621;BME280;5866;49.094;11.900;2023-03-20T08:48:04;96483.13;;;12.83;100.00
11621;BME280;5866;49.094;11.900;2023-03-20T08:50:31;96487.09;;;12.95;100.00
11621;BME280;5866;49.094;11.900;2023-03-20T08:52:59;96487.72;;;13.60;100.00
11621;BME280;5866;49.094;11.900;2023-03-20T08:55:26;96493.50;;;12.54;100.00
11621;BME280;5866;49.094;11.900;2023-03-20T08:57:54;96502.13;;;12.08;100.00
11621;BME280;5866;49.094;11.900;2023-03-20T09:00:23;96491.78;;;12.85;100.00
11621;BME280;5866;49.094;11.900;2023-03-20T09:02:51;96492.50;;;12.47;100.00
11621;BME280;5866;49.094;11.900;2023-03-20T09:05:19;96490.78;;;12.94;100.00
11621;BME280;5866;49.094;11.900;2023-03-20T09:07:47;96493.47;;;12.30;100.00
11621;BME280;5866;49.094;11.900;2023-03-20T09:10:15;96501.94;;;11.43;100.00
11621;BME280;5866;49.094;11.900;2023-03-20T09:12:42;96509.53;;;11.80;100.00
11621;BME280;5866;49.094;11.900;2023-03-20T09:15:10;96506.16;;;11.62;100.00
11621;BME280;5866;49.094;11.900;2023-03-20T09:17:38;96504.94;;;11.98;100.00
11621;BME280;5866;49.094;11.900;2023-03-20T09:20:06;96496.16;;;12.14;100.00
11621;BME280;5866;49.094;11.900;2023-03-20T09:22:35;96496.03;;;13.26;100.00
11621;BME280;5866;49.094;11.900;2023-03-20T09:25:07;96495.03;;;14.19;100.00
11621;BME280;5866;49.094;11.900;2023-03-20T09:27:34;96493.44;;;14.33;96.84
11621;BME280;5866;49.094;11.900;2023-03-20T09:30:03;96488.03;;;15.16;89.68
11621;BME280;5866;49.094;11.900;2023-03-20T09:32:31;96500.75;;;14.62;91.32
11621;BME280;5866;49.094;11.900;2023-03-20T09:35:00;96495.97;;;14.26;93.61
11621;BME280;5866;49.094;11.900;2023-03-20T09:37:28;96508.06;;;13.92;99.72
11621;BME280;5866;49.094;11.900;2023-03-20T09:39:57;96502.06;;;14.43;93.75
11621;BME280;5866;49.094;11.900;2023-03-20T09:42:32;96500.16;;;14.29;94.20
11621;BME280;5866;49.094;11.900;2023-03-20T09:45:04;96504.78;;;15.09;88.97
11621;BME280;5866;49.094;11.900;2023-03-20T09:47:41;96502.47;;;16.15;81.06
11621;BME280;5866;49.094;11.900;2023-03-20T09:50:20;96506.47;;;16.05;78.22
11621;BME280;5866;49.094;11.900;2023-03-20T09:52:56;96498.63;;;16.03;76.41
11621;BME280;5866;49.094;11.900;2023-03-20T09:55:31;96503.50;;;15.35;79.91
11621;BME280;5866;49.094;11.900;2023-03-20T09:58:04;96499.72;;;15.44;77.82
11621;BME280;5866;49.094;11.900;2023-03-20T10:00:34;96494.09;;;15.39;80.25
11621;BME280;5866;49.094;11.900;2023-03-20T10:03:04;96503.03;;;15.75;77.99
11621;BME280;5866;49.094;11.900;2023-03-20T10:05:35;96504.47;;;15.92;77.92
11621;BME280;5866;49.094;11.900;2023-03-20T10:08:06;96496.59;;;16.05;75.47
11621;BME280;5866;49.094;11.900;2023-03-20T10:10:43;96487.75;;;16.47;72.23
11621;BME280;5866;49.094;11.900;2023-03-20T10:13:38;96486.94;;;16.67;69.88
11621;BME280;5866;49.094;11.900;2023-03-20T10:16:16;96484.00;;;16.41;70.50
11621;BME280;5866;49.094;11.900;2023-03-20T10:18:50;96492.09;;;16.48;71.09
11621;BME280;5866;49.094;11.900;2023-03-20T10:21:26;96483.06;;;16.98;68.12
11621;BME280;5866;49.094;11.900;2023-03-20T10:24:01;96494.66;;;17.39;65.76
11621;BME280;5866;49.094;11.900;2023-03-20T10:26:33;96484.16;;;17.10;65.62
11621;BME280;5866;49.094;11.900;2023-03-20T10:29:04;96489.22;;;17.26;62.84
11621;BME280;5866;49.094;11.900;2023-03-20T10:31:41;96477.59;;;18.61;59.30
11621;BME280;5866;49.094;11.900;2023-03-20T10:34:21;96488.00;;;18.03;59.53
11621;BME280;5866;49.094;11.900;2023-03-20T10:37:00;96489.56;;;19.30;55.40
11621;BME280;5866;49.094;11.900;2023-03-20T10:39:42;96489.56;;;19.37;56.13
11621;BME280;5866;49.094;11.900;2023-03-20T10:42:19;96485.84;;;20.02;52.48
11621;BME280;5866;49.094;11.900;2023-03-20T10:44:52;96482.06;;;19.58;54.21
11621;BME280;5866;49.094;11.900;2023-03-20T10:47:23;96477.28;;;20.11;51.95
11621;BME280;5866;49.094;11.900;2023-03-20T10:49:56;96477.72;;;20.52;50.94
11621;BME280;5866;49.094;11.900;2023-03-20T10:52:27;96470.53;;;20.71;49.99
11621;BME280;5866;49.094;11.900;2023-03-20T10:54:58;96464.06;;;21.46;49.45
11621;BME280;5866;49.094;11.900;2023-03-20T10:57:29;96450.59;;;22.12;45.91
11621;BME280;5866;49.094;11.900;2023-03-20T10:59:58;96459.00;;;21.31;46.85
11621;BME280;5866;49.094;11.900;2023-03-20T11:02:27;96452.84;;;21.24;47.75
11621;BME280;5866;49.094;11.900;2023-03-20T11:04:58;96448.94;;;19.58;49.93
11621;BME280;5866;49.094;11.900;2023-03-20T11:07:31;96445.59;;;15.42;64.68
11621;BME280;5866;49.094;11.900;2023-03-20T11:10:10;96458.88;;;15.06;73.16
11621;BME280;5866;49.094;11.900;2023-03-20T11:12:42;96446.44;;;15.42;70.47
11621;BME280;5866;49.094;11.900;2023-03-20T11:15:19;96451.56;;;14.56;75.49
11621;BME280;5866;49.094;11.900;2023-03-20T11:17:53;96449.69;;;14.19;79.08
11621;BME280;5866;49.094;11.900;2023-03-20T11:20:22;96447.44;;;14.68;79.92
11621;BME280;5866;49.094;11.900;2023-03-20T11:22:56;96454.66;;;15.11;75.01
11621;BME280;5866;49.094;11.900;2023-03-20T11:25:28;96453.88;;;14.59;75.75
11621;BME280;5866;49.094;11.900;2023-03-20T11:28:18;96444.50;;;14.63;73.91
11621;BME280;5866;49.094;11.900;2023-03-20T11:30:46;96453.81;;;15.26;71.91
11621;BME280;5866;49.094;11.900;2023-03-20T11:33:31;96447.81;;;14.65;71.62
11621;BME280;5866;49.094;11.900;2023-03-20T11:36:00;96451.72;;;13.95;78.59
11621;BME280;5866;49.094;11.900;2023-03-20T11:38:29;96455.94;;;13.81;82.48
11621;BME280;5866;49.094;11.900;2023-03-20T11:40:57;96456.44;;;13.54;86.34
11621;BME280;5866;49.094;11.900;2023-03-20T11:43:26;96453.72;;;13.62;83.82
11621;BME280;5866;49.094;11.900;2023-03-20T11:45:57;96445.19;;;13.44;88.86
11621;BME280;5866;49.094;11.900;2023-03-20T11:48:36;96441.22;;;12.85;90.19
11621;BME280;5866;49.094;11.900;2023-03-20T11:51:05;96447.31;;;13.02;90.80
11621;BME280;5866;49.094;11.900;2023-03-20T11:53:36;96450.63;;;13.12;89.66
11621;BME280;5866;49.094;11.900;2023-03-20T11:56:08;96453.81;;;13.46;89.55
11621;BME280;5866;49.094;11.900;2023-03-20T11:58:49;96447.63;;;12.99;94.86
11621;BME280;5866;49.094;11.900;2023-03-20T12:01:21;96449.81;;;12.95;97.39
11621;BME280;5866;49.094;11.900;2023-03-20T12:03:50;96452.16;;;12.98;100.00
11621;BME280;5866;49.094;11.900;2023-03-20T12:06:22;96441.19;;;12.93;96.63
11621;BME280;5866;49.094;11.900;2023-03-20T12:08:56;96446.19;;;12.88;96.66
11621;BME280;5866;49.094;11.900;2023-03-20T12:11:37;96441.91;;;12.71;96.65
11621;BME280;5866;49.094;11.900;2023-03-20T12:14:16;96450.38;;;12.74;98.66
11621;BME280;5866;49.094;11.900;2023-03-20T12:16:48;96449.03;;;12.78;92.11
11621;BME280;5866;49.094;11.900;2023-03-20T12:19:21;96447.69;;;12.83;89.42
11621;BME280;5866;49.094;11.900;2023-03-20T12:21:59;96440.03;;;13.34;87.13
11621;BME280;5866;49.094;11.900;2023-03-20T12:24:34;96433.69;;;13.43;87.31
11621;BME280;5866;49.094;11.900;2023-03-20T12:27:16;96437.47;;;13.18;88.99
11621;BME280;5866;49.094;11.900;2023-03-20T12:29:49;96438.53;;;13.40;88.19
11621;BME280;5866;49.094;11.900;2023-03-20T12:32:21;96430.25;;;13.66;87.55
11621;BME280;5866;49.094;11.900;2023-03-20T12:34:54;96429.91;;;13.61;83.87
11621;BME280;5866;49.094;11.900;2023-03-20T12:37:24;96432.53;;;13.69;85.29
11621;BME280;5866;49.094;11.900;2023-03-20T12:39:54;96425.25;;;13.24;90.04
11621;BME280;5866;49.094;11.900;2023-03-20T12:42:31;96420.63;;;13.18;88.18
11621;BME280;5866;49.094;11.900;2023-03-20T12:45:08;96418.72;;;13.42;87.04
11621;BME280;5866;49.094;11.900;2023-03-20T12:48:05;96424.38;;;12.93;90.14
11621;BME280;5866;49.094;11.900;2023-03-20T12:50:38;96423.47;;;13.16;89.31
11621;BME280;5866;49.094;11.900;2023-03-20T12:53:27;96417.00;;;13.72;88.26
11621;BME280;5866;49.094;11.900;2023-03-20T12:56:04;96423.41;;;14.31;84.06
11621;BME280;5866;49.094;11.900;2023-03-20T12:58:40;96425.13;;;14.24;79.16
11621;BME280;5866;49.094;11.900;2023-03-20T13:01:15;96430.59;;;14.68;77.50
11621;BME280;5866;49.094;11.900;2023-03-20T13:04:09;96415.72;;;14.36;78.44
11621;BME280;5866;49.094;11.900;2023-03-20T13:06:50;96420.69;;;14.39;77.48
11621;BME280;5866;49.094;11.900;2023-03-20T13:09:50;96413.63;;;14.46;75.94
11621;BME280;5866;49.094;11.900;2023-03-20T13:12:31;96406.84;;;13.76;76.07
11621;BME280;5866;49.094;11.900;2023-03-20T13:15:11;96415.22;;;14.10;77.62
11621;BME280;5866;49.094;11.900;2023-03-20T13:17:47;96410.81;;;13.80;81.51
11621;BME280;5866;49.094;11.900;2023-03-20T13:20:20;96406.31;;;13.49;81.84